TimeEST,TemperatureF,Dew PointF,Humidity,Sea Level PressureIn,VisibilityMPH,Wind Direction,Wind SpeedMPH,Gust SpeedMPH,PrecipitationIn,Events,Conditions,WindDirDegrees,DateUTC
12:53 AM,53.1,39.0,59,30.23,10.0,SE,6.9,-,N/A,,Overcast,130,2014-03-02 05:53:00
1:53 AM,50.0,39.9,68,30.22,10.0,SSE,6.9,-,N/A,,Scattered Clouds,150,2014-03-02 06:53:00
2:53 AM,48.9,39.9,71,30.20,10.0,SSE,3.5,-,N/A,,Clear,150,2014-03-02 07:53:00
3:53 AM,48.0,41.0,77,30.19,10.0,Calm,Calm,-,N/A,,Clear,0,2014-03-02 08:53:00
4:53 AM,46.0,39.9,79,30.21,10.0,ESE,4.6,-,N/A,,Clear,110,2014-03-02 09:53:00
5:53 AM,46.0,41.0,83,30.21,10.0,Calm,Calm,-,N/A,,Clear,0,2014-03-02 10:53:00
6:53 AM,46.0,42.1,86,30.21,8.0,Calm,Calm,-,N/A,,Clear,0,2014-03-02 11:53:00
7:53 AM,48.9,44.1,83,30.23,10.0,SW,3.5,-,N/A,,Clear,220,2014-03-02 12:53:00
8:53 AM,54.0,44.1,69,30.23,10.0,SE,5.8,-,N/A,,Clear,140,2014-03-02 13:53:00
9:53 AM,55.9,45.0,67,30.23,10.0,SSW,4.6,-,N/A,,Clear,200,2014-03-02 14:53:00
10:53 AM,64.0,44.1,48,30.22,10.0,Variable,3.5,-,N/A,,Clear,0,2014-03-02 15:53:00
11:53 AM,69.1,41.0,36,30.19,10.0,SSW,8.1,-,N/A,,Clear,210,2014-03-02 16:53:00
12:53 PM,70.0,43.0,38,30.15,10.0,SSW,11.5,-,N/A,,Clear,210,2014-03-02 17:53:00
1:53 PM,72.0,44.1,37,30.12,10.0,SSW,9.2,-,N/A,,Clear,210,2014-03-02 18:53:00
2:53 PM,73.0,45.0,37,30.09,10.0,Variable,5.8,-,N/A,,Clear,0,2014-03-02 19:53:00
3:53 PM,73.9,45.0,35,30.07,10.0,SW,6.9,17.3,N/A,,Clear,220,2014-03-02 20:53:00
4:53 PM,73.0,45.0,37,30.04,10.0,SW,10.4,-,N/A,,Clear,230,2014-03-02 21:53:00
5:53 PM,72.0,46.0,40,30.04,10.0,SW,10.4,18.4,N/A,,Clear,220,2014-03-02 22:53:00
6:53 PM,68.0,46.0,45,30.04,10.0,SSW,6.9,-,N/A,,Clear,200,2014-03-02 23:53:00
7:53 PM,66.0,46.0,48,30.03,10.0,SSW,5.8,-,N/A,,Clear,200,2014-03-03 00:53:00
8:53 PM,64.0,46.0,52,30.01,10.0,South,6.9,-,N/A,,Clear,190,2014-03-03 01:53:00
9:53 PM,62.1,46.9,58,30.01,10.0,SSW,6.9,-,N/A,,Clear,200,2014-03-03 02:53:00
10:53 PM,62.1,46.0,56,30.01,10.0,SSW,8.1,-,N/A,,Clear,200,2014-03-03 03:53:00
11:53 PM,60.1,46.0,60,29.99,10.0,SSW,6.9,-,N/A,,Clear,210,2014-03-03 04:53:00